Estación de San Ignacio
Ultimos registro cada 15 minutos 36
| N° | Estación | Fecha / Hora | Temperatura | Humedad | Lluvia | Velocidad | Dirección | Radiación | Presion |
| 36 | San Ignacio | 09-05-2026 08:45 | 4,2 | 86 | 0 | 1,3 | 12 | 18 | 1037,8 |
| 35 | San Ignacio | 09-05-2026 08:30 | 3,7 | 86 | 0 | 0,9 | 5 | 18 | 1038 |
| 34 | San Ignacio | 09-05-2026 08:15 | 3,2 | 86 | 0 | 0 | 5 | 18 | 1037,9 |
| 33 | San Ignacio | 09-05-2026 08:00 | 3,1 | 86 | 0 | 0 | 5 | 12 | 1037,8 |
| 32 | San Ignacio | 09-05-2026 07:45 | 3,1 | 86 | 0 | 0,4 | 5 | 9 | 1037,9 |
| 31 | San Ignacio | 09-05-2026 07:30 | 3 | 87 | 0 | 1,3 | 360 | 0 | 1037,8 |
| 30 | San Ignacio | 09-05-2026 07:15 | 3,1 | 86 | 0 | 0,4 | 20 | 0 | 1037,7 |
| 29 | San Ignacio | 09-05-2026 07:00 | 3,3 | 86 | 0 | 0,4 | 10 | 0 | 1037,7 |
| 28 | San Ignacio | 09-05-2026 06:45 | 3,4 | 87 | 0 | 0 | 20 | 0 | 1037,7 |
| 27 | San Ignacio | 09-05-2026 06:30 | 3,1 | 88 | 0 | 0,4 | 17 | 0 | 1037,6 |
| 26 | San Ignacio | 09-05-2026 06:15 | 3,1 | 87 | 0 | 0 | 355 | 0 | 1037,9 |
| 25 | San Ignacio | 09-05-2026 06:00 | 3,4 | 88 | 0 | 0,4 | 355 | 0 | 1038 |
| 24 | San Ignacio | 09-05-2026 05:45 | 3,4 | 88 | 0 | 0,9 | 360 | 0 | 1037,9 |
| 23 | San Ignacio | 09-05-2026 05:30 | 3,4 | 88 | 0 | 0,4 | 360 | 0 | 1038,1 |
| 22 | San Ignacio | 09-05-2026 05:15 | 3,5 | 89 | 0 | 0,4 | 13 | 0 | 1038,1 |
| 21 | San Ignacio | 09-05-2026 05:00 | 3,6 | 89 | 0 | 0 | 15 | 0 | 1038,3 |
| 20 | San Ignacio | 09-05-2026 04:45 | 3,6 | 89 | 0 | 0,4 | 15 | 0 | 1038,4 |
| 19 | San Ignacio | 09-05-2026 04:30 | 3,7 | 89 | 0 | 0 | 11 | 0 | 1038,4 |
| 18 | San Ignacio | 09-05-2026 04:15 | 3,8 | 89 | 0 | 0,9 | 11 | 0 | 1038,6 |
| 17 | San Ignacio | 09-05-2026 04:00 | 3,9 | 89 | 0 | 0 | 11 | 0 | 1038,3 |
| 16 | San Ignacio | 09-05-2026 03:45 | 4 | 89 | 0 | 0 | 11 | 0 | 1038,1 |
| 15 | San Ignacio | 09-05-2026 03:30 | 4,1 | 89 | 0 | 0 | 11 | 0 | 1038,3 |
| 14 | San Ignacio | 09-05-2026 03:15 | 4,1 | 89 | 0 | 0,4 | 11 | 0 | 1038,2 |
| 13 | San Ignacio | 09-05-2026 03:00 | 4,3 | 90 | 0 | 0 | 5 | 0 | 1038,4 |
| 12 | San Ignacio | 09-05-2026 02:45 | 4,2 | 90 | 0 | 0 | 5 | 0 | 1038,7 |
| 11 | San Ignacio | 09-05-2026 02:30 | 4,7 | 90 | 0 | 0 | 5 | 0 | 1038,7 |
| 10 | San Ignacio | 09-05-2026 02:15 | 4,7 | 89 | 0 | 0 | 5 | 0 | 1038,7 |
| 9 | San Ignacio | 09-05-2026 02:00 | 5 | 89 | 0 | 0 | 5 | 0 | 1038,8 |
| 8 | San Ignacio | 09-05-2026 01:45 | 5,4 | 89 | 0 | 0 | 5 | 0 | 1039 |
| 7 | San Ignacio | 09-05-2026 01:30 | 5,8 | 90 | 0 | 0 | 5 | 0 | 1039 |
| 6 | San Ignacio | 09-05-2026 01:15 | 6 | 90 | 0 | 0,4 | 5 | 0 | 1038,7 |
| 5 | San Ignacio | 09-05-2026 01:00 | 6 | 90 | 0 | 0,9 | 351 | 0 | 1038,9 |
| 4 | San Ignacio | 09-05-2026 00:45 | 6,1 | 90 | 0 | 0,9 | 12 | 0 | 1038,9 |
| 3 | San Ignacio | 09-05-2026 00:30 | 6,4 | 90 | 0 | 0 | 42 | 0 | 1038,8 |
| 2 | San Ignacio | 09-05-2026 00:15 | 6,7 | 90 | 0 | 0 | 29 | 0 | 1038,6 |
| 1 | San Ignacio | 09-05-2026 00:00 | 6,9 | 89 | 0 | 1,3 | 38 | 0 | 1038,7 |